Time;durP1;ratioP1;P1;durP2;ratioP2;P2;SDS_P1;SDS_P2;PMS_P1;PMS_P2;Temp;Humidity;BMP_temperature;BMP_pressure;BME280_temperature;BME280_humidity;BME280_pressure;Samples;Min_cycle;Max_cycle;Signal;HPM_P1;HPM_P2
2023/08/03 00:00:05;;;;;;;;;;;;;;;28.25;61.32;98912.19;335033;29;2300;-81
2023/08/03 00:00:15;;;;;;;;;;;;;;;28.25;61.60;98901.44;332935;29;2575;-80
2023/08/03 00:00:27;;;;;;;;;;;;;;;28.25;61.63;98902.25;330909;29;1587;-81
2023/08/03 00:00:37;;;;;;;;;;;;;;;28.27;61.10;98899.38;328071;30;1385;-80
2023/08/03 00:00:48;;;;;;;;;;;;;;;28.24;61.21;98902.47;327459;30;1827;-79
2023/08/03 00:00:58;;;;;;;;;;;;;;;28.25;61.26;98901.44;327168;30;1495;-79
2023/08/03 00:01:08;;;;;;;;;;;;;;;28.24;61.65;98899.75;324676;30;853;-79
2023/08/03 00:01:18;;;;;;;;;;;;;;;28.24;61.37;98899.75;325477;30;1983;-81
2023/08/03 00:01:29;;;;;;;;;;;;;;;28.23;61.46;98893.56;322873;30;2421;-80
2023/08/03 00:01:40;;;;;;;;;;;;;;;28.23;61.15;98900.78;321697;30;821;-80
2023/08/03 00:01:53;;;;;;;;;;;;;;;28.24;61.59;98902.47;326841;30;2900;-80
2023/08/03 00:02:03;;;;;;;;;;;;;;;28.21;61.71;98903.69;323059;30;2985;-80
2023/08/03 00:02:13;;;;;;;;;;;;;;;28.20;61.52;98901.13;319528;30;3228;-80
2023/08/03 00:02:23;;;;;;;;;;;;;;;28.19;61.77;98904.84;320065;30;860;-80
2023/08/03 00:02:34;;;;;;;;;;;;;;;28.18;61.94;98901.34;318505;30;2710;-80
2023/08/03 00:02:47;;;;;;;;;;;;;;;28.18;61.69;98901.34;315440;30;2947;-80
2023/08/03 00:02:58;;;;;;;;;;;;;;;28.18;61.61;98904.03;319526;30;2294;-80
2023/08/03 00:03:08;;;;;;;;;;;;;;;28.17;61.45;98900.50;316365;31;1315;-80
2023/08/03 00:03:18;;;;;;;;;;;;;;;28.20;61.45;98909.22;317070;31;1837;-80
2023/08/03 00:03:28;;;;;;;;;;;;;;;28.19;62.02;98902.16;315264;30;2468;-80
2023/08/03 00:03:39;;;;;;;;;;;;;;;28.22;61.85;98907.19;316513;31;1318;-80
2023/08/03 00:03:49;;;;;;;;;;;;;;;28.23;61.22;98903.47;317928;30;4016;-79
2023/08/03 00:04:00;;;;;;;;;;;;;;;28.24;61.50;98900.59;315020;31;4187;-79
2023/08/03 00:04:10;;;;;;;;;;;;;;;28.26;61.13;98903.09;311800;31;1253;-80
2023/08/03 00:04:21;;;;;;;;;;;;;;;28.25;61.62;98907.66;313066;31;4583;-78
2023/08/03 00:04:31;;;;;;;;;;;;;;;28.25;61.63;98906.81;311860;31;4941;-79
2023/08/03 00:04:41;;;;;;;;;;;;;;;28.27;61.09;98902.06;312051;31;1224;-79
2023/08/03 00:04:51;;;;;;;;;;;;;;;28.27;61.11;98904.75;307829;31;4460;-79
2023/08/03 00:05:02;;;;;;;;;;;;;;;28.27;61.01;98904.75;308316;31;3564;-78
2023/08/03 00:05:16;;;;;;;;;;;;;;;28.25;61.55;98906.81;310768;31;1005;-78
2023/08/03 00:05:27;;;;;;;;;;;;;;;28.24;61.05;98903.28;306649;32;836;-81
2023/08/03 00:05:37;;;;;;;;;;;;;;;28.24;61.51;98902.47;301395;32;2655;-80
2023/08/03 00:05:47;;;;;;;;;;;;;;;28.24;61.49;98899.75;299783;32;3904;-80
2023/08/03 00:05:57;;;;;;;;;;;;;;;28.25;60.97;98904.13;299501;32;5394;-80
2023/08/03 00:06:08;;;;;;;;;;;;;;;28.25;61.67;98907.66;303340;32;2063;-80
2023/08/03 00:06:18;;;;;;;;;;;;;;;28.25;61.46;98901.44;301662;32;6847;-81
2023/08/03 00:06:28;;;;;;;;;;;;;;;28.25;61.49;98906.81;301241;32;5599;-81
2023/08/03 00:06:38;;;;;;;;;;;;;;;28.23;61.15;98901.63;305443;32;1240;-80
2023/08/03 00:06:49;;;;;;;;;;;;;;;28.23;61.50;98907.00;301721;32;7029;-80
2023/08/03 00:06:59;;;;;;;;;;;;;;;28.23;61.42;98903.47;299772;32;6871;-80
2023/08/03 00:07:09;;;;;;;;;;;;;;;28.24;61.31;98899.75;297292;33;1260;-80
2023/08/03 00:07:19;;;;;;;;;;;;;;;28.22;61.32;98899.13;296340;33;5154;-81
2023/08/03 00:07:30;;;;;;;;;;;;;;;28.22;61.23;98902.66;294541;33;4827;-80
2023/08/03 00:07:41;;;;;;;;;;;;;;;28.23;61.16;98900.78;291287;33;1338;-81
2023/08/03 00:07:51;;;;;;;;;;;;;;;28.23;61.11;98906.19;292623;33;4087;-80
2023/08/03 00:08:01;;;;;;;;;;;;;;;28.22;61.64;98901.81;292503;33;6576;-80
2023/08/03 00:08:11;;;;;;;;;;;;;;;28.23;61.08;98903.47;295220;33;1346;-80
2023/08/03 00:08:22;;;;;;;;;;;;;;;28.23;61.01;98908.88;291742;33;8584;-79
2023/08/03 00:08:32;;;;;;;;;;;;;;;28.23;61.47;98909.69;287224;34;9511;-80
2023/08/03 00:10:25;;;;;;;;;;;;;;;28.17;61.87;98900.50;2504734;27;19926;-80
2023/08/03 00:10:35;;;;;;;;;;;;;;;28.17;61.46;98908.56;354788;27;1357;-80
2023/08/03 00:10:46;;;;;;;;;;;;;;;28.18;61.93;98901.34;351989;28;1228;-80
2023/08/03 00:10:56;;;;;;;;;;;;;;;28.16;61.59;98906.91;350664;28;1207;-80
2023/08/03 00:11:06;;;;;;;;;;;;;;;28.15;61.65;98907.97;351863;28;1360;-80
2023/08/03 00:11:17;;;;;;;;;;;;;;;28.17;61.63;98899.66;350629;28;761;-80
2023/08/03 00:11:27;;;;;;;;;;;;;;;28.15;61.56;98907.97;350831;28;788;-80
2023/08/03 00:11:37;;;;;;;;;;;;;;;28.15;61.82;98902.59;350554;28;1352;-80
2023/08/03 00:11:47;;;;;;;;;;;;;;;28.15;61.89;98902.59;353325;28;1416;-80
2023/08/03 00:11:58;;;;;;;;;;;;;;;28.15;61.90;98902.59;350410;28;1329;-80
2023/08/03 00:12:08;;;;;;;;;;;;;;;28.16;61.51;98901.53;350935;28;875;-80
2023/08/03 00:12:18;;;;;;;;;;;;;;;28.15;61.46;98902.59;350266;28;1349;-79
2023/08/03 00:12:28;;;;;;;;;;;;;;;28.16;61.59;98903.38;348976;28;1385;-79
2023/08/03 00:12:39;;;;;;;;;;;;;;;28.16;61.84;98909.59;349270;28;1026;-81
2023/08/03 00:12:49;;;;;;;;;;;;;;;28.17;61.58;98907.75;347779;28;1208;-80
2023/08/03 00:12:59;;;;;;;;;;;;;;;28.16;61.64;98908.75;349329;28;1251;-80
2023/08/03 00:13:09;;;;;;;;;;;;;;;28.17;61.85;98910.44;347668;28;1307;-81
2023/08/03 00:13:20;;;;;;;;;;;;;;;28.17;61.71;98905.88;347951;28;904;-80
2023/08/03 00:13:30;;;;;;;;;;;;;;;28.17;61.99;98911.25;347804;28;1206;-81
2023/08/03 00:13:40;;;;;;;;;;;;;;;28.19;61.93;98907.56;347837;28;1298;-81
2023/08/03 00:13:50;;;;;;;;;;;;;;;28.20;61.33;98909.22;347775;28;1345;-81
2023/08/03 00:14:01;;;;;;;;;;;;;;;28.19;61.59;98902.16;349077;28;1213;-81
2023/08/03 00:14:11;;;;;;;;;;;;;;;28.19;61.75;98908.38;348955;28;1313;-81
2023/08/03 00:14:21;;;;;;;;;;;;;;;28.18;61.94;98904.03;350045;28;1268;-81
2023/08/03 00:14:31;;;;;;;;;;;;;;;28.17;62.21;98905.88;347904;28;1251;-81
2023/08/03 00:14:41;;;;;;;;;;;;;;;28.17;61.46;98903.19;349294;28;895;-81
2023/08/03 00:14:52;;;;;;;;;;;;;;;28.17;61.53;98900.50;351582;28;1003;-79
2023/08/03 00:15:02;;;;;;;;;;;;;;;28.19;61.77;98904.84;350545;28;814;-80
2023/08/03 00:15:13;;;;;;;;;;;;;;;28.19;61.50;98907.56;349160;28;1203;-79
2023/08/03 00:15:23;;;;;;;;;;;;;;;28.19;61.67;98908.38;349299;28;1294;-80
2023/08/03 00:15:33;;;;;;;;;;;;;;;28.18;62.03;98906.72;347890;28;1308;-80
2023/08/03 00:15:44;;;;;;;;;;;;;;;28.15;62.12;98910.66;349131;28;1198;-80
2023/08/03 00:15:54;;;;;;;;;;;;;;;28.16;61.91;98909.59;347904;28;879;-80
2023/08/03 00:16:04;;;;;;;;;;;;;;;28.14;61.71;98906.31;347717;28;1234;-80
2023/08/03 00:16:14;;;;;;;;;;;;;;;28.15;62.40;98907.13;346742;28;1256;-80
2023/08/03 00:16:25;;;;;;;;;;;;;;;28.12;62.37;98902.97;349201;28;816;-80
2023/08/03 00:16:36;;;;;;;;;;;;;;;28.13;62.36;98910.00;346937;28;1216;-80
2023/08/03 00:16:46;;;;;;;;;;;;;;;28.13;61.93;98910.00;349335;28;1272;-80
2023/08/03 00:16:56;;;;;;;;;;;;;;;28.13;61.84;98906.50;350631;28;930;-80
2023/08/03 00:17:07;;;;;;;;;;;;;;;28.14;62.45;98913.53;348056;28;1026;-80
2023/08/03 00:17:17;;;;;;;;;;;;;;;28.13;62.36;98903.81;345210;28;1342;-80
2023/08/03 00:17:27;;;;;;;;;;;;;;;28.12;62.13;98907.50;345410;28;1452;-80
2023/08/03 00:17:37;;;;;;;;;;;;;;;28.11;62.17;98906.69;349106;28;1303;-80
2023/08/03 00:17:48;;;;;;;;;;;;;;;28.11;62.04;98908.53;349722;28;1213;-80
2023/08/03 00:17:58;;;;;;;;;;;;;;;28.11;61.83;98906.69;350707;28;1186;-80
2023/08/03 00:18:08;;;;;;;;;;;;;;;28.11;62.35;98906.69;347510;28;1327;-81
2023/08/03 00:18:18;;;;;;;;;;;;;;;28.12;61.93;98911.03;348279;28;950;-80
2023/08/03 00:18:29;;;;;;;;;;;;;;;28.12;62.45;98905.66;347757;28;1283;-80
2023/08/03 00:18:39;;;;;;;;;;;;;;;28.12;61.86;98908.34;348866;28;1208;-81
2023/08/03 00:18:49;;;;;;;;;;;;;;;28.12;61.84;98907.50;344858;28;1195;-81
2023/08/03 00:18:59;;;;;;;;;;;;;;;28.10;62.32;98905.00;346268;28;1543;-81
2023/08/03 00:19:10;;;;;;;;;;;;;;;28.12;61.86;98910.22;346319;28;1513;-80
2023/08/03 00:19:20;;;;;;;;;;;;;;;28.11;61.78;98906.69;344998;28;1416;-80
2023/08/03 00:19:30;;;;;;;;;;;;;;;28.12;61.86;98908.34;347748;28;1343;-80
2023/08/03 00:19:40;;;;;;;;;;;;;;;28.12;61.78;98905.66;351342;28;1320;-80
2023/08/03 00:19:51;;;;;;;;;;;;;;;28.12;62.19;98908.34;349451;28;1207;-80
2023/08/03 00:20:03;;;;;;;;;;;;;;;28.12;61.84;98908.34;347001;28;1302;-80
2023/08/03 00:20:14;;;;;;;;;;;;;;;28.10;61.96;98904.19;343610;28;1447;-79
2023/08/03 00:20:24;;;;;;;;;;;;;;;28.09;62.32;98908.72;346265;28;1643;-80
2023/08/03 00:20:34;;;;;;;;;;;;;;;28.08;62.32;98907.06;346732;28;1290;-80
2023/08/03 00:20:47;;;;;;;;;;;;;;;28.07;61.99;98902.72;350072;28;1471;-79
2023/08/03 00:20:58;;;;;;;;;;;;;;;28.08;61.85;98911.63;343728;28;1451;-80
2023/08/03 00:21:08;;;;;;;;;;;;;;;28.08;62.25;98909.75;338363;29;1992;-80
2023/08/03 00:21:18;;;;;;;;;;;;;;;28.08;62.37;98907.06;333447;29;2067;-80
2023/08/03 00:21:28;;;;;;;;;;;;;;;28.08;61.84;98909.75;332108;29;1231;-80
2023/08/03 00:21:39;;;;;;;;;;;;;;;28.07;62.06;98905.41;336795;29;1497;-80
2023/08/03 00:21:49;;;;;;;;;;;;;;;28.05;62.02;98907.44;338983;29;1273;-80
2023/08/03 00:21:59;;;;;;;;;;;;;;;28.05;62.19;98901.22;337205;29;1337;-80
2023/08/03 00:22:09;;;;;;;;;;;;;;;28.02;61.97;98902.44;335734;29;1190;-81
2023/08/03 00:22:19;;;;;;;;;;;;;;;28.02;62.51;98907.00;331630;29;2098;-80
2023/08/03 00:22:30;;;;;;;;;;;;;;;28.01;62.64;98908.84;330797;29;2235;-80
2023/08/03 00:22:45;;;;;;;;;;;;;;;28.00;62.33;98904.50;334747;29;1294;-80
2023/08/03 00:22:56;;;;;;;;;;;;;;;27.99;62.65;98902.81;330719;29;1367;-80
2023/08/03 00:23:06;;;;;;;;;;;;;;;27.97;62.71;98904.88;325807;30;2371;-81
2023/08/03 00:23:16;;;;;;;;;;;;;;;27.97;62.53;98899.50;324226;30;2400;-80
2023/08/03 00:23:26;;;;;;;;;;;;;;;27.97;62.18;98899.50;322313;30;1281;-80
2023/08/03 00:23:37;;;;;;;;;;;;;;;27.98;62.72;98903.84;327786;30;2489;-80
2023/08/03 00:23:47;;;;;;;;;;;;;;;27.98;62.21;98903.84;330891;29;1714;-80
2023/08/03 00:23:57;;;;;;;;;;;;;;;27.97;62.83;98904.88;332013;29;1269;-80
2023/08/03 00:24:07;;;;;;;;;;;;;;;27.97;62.47;98907.56;330469;29;1377;-79
2023/08/03 00:24:18;;;;;;;;;;;;;;;27.96;62.97;98902.38;327623;29;2002;-79
2023/08/03 00:24:28;;;;;;;;;;;;;;;27.96;62.49;98908.59;325766;30;1224;-80
2023/08/03 00:24:38;;;;;;;;;;;;;;;27.96;63.02;98905.91;329946;29;2330;-80
2023/08/03 00:24:48;;;;;;;;;;;;;;;27.96;62.83;98908.59;326824;30;2763;-80
2023/08/03 00:24:59;;;;;;;;;;;;;;;27.97;62.83;98904.03;323512;30;1228;-80
2023/08/03 00:25:09;;;;;;;;;;;;;;;27.97;63.01;98904.88;325298;30;2423;-81
2023/08/03 00:25:19;;;;;;;;;;;;;;;27.97;62.40;98904.88;324864;30;3061;-81
2023/08/03 00:25:31;;;;;;;;;;;;;;;27.99;62.63;98899.31;324229;30;2929;-80
2023/08/03 00:25:41;;;;;;;;;;;;;;;27.99;62.34;98905.53;324703;30;1278;-80
2023/08/03 00:25:51;;;;;;;;;;;;;;;27.99;62.35;98902.00;326019;30;2942;-81
2023/08/03 00:26:01;;;;;;;;;;;;;;;27.98;62.47;98906.53;323613;30;2257;-80
2023/08/03 00:26:12;;;;;;;;;;;;;;;28.00;62.45;98911.72;323512;30;912;-80
2023/08/03 00:26:22;;;;;;;;;;;;;;;28.00;62.82;98904.50;325831;30;2287;-81
2023/08/03 00:26:33;;;;;;;;;;;;;;;28.00;62.57;98903.66;322532;30;2594;-81
2023/08/03 00:26:44;;;;;;;;;;;;;;;28.00;62.82;98907.19;321196;30;886;-80
2023/08/03 00:26:54;;;;;;;;;;;;;;;28.01;62.52;98906.16;318108;30;3180;-80
2023/08/03 00:27:04;;;;;;;;;;;;;;;28.00;62.65;98904.50;315523;31;3420;-81
2023/08/03 00:27:15;;;;;;;;;;;;;;;28.00;62.90;98903.66;312454;31;3554;-81
2023/08/03 00:27:25;;;;;;;;;;;;;;;27.99;62.47;98902.81;314311;31;925;-81
2023/08/03 00:27:35;;;;;;;;;;;;;;;27.99;62.58;98897.44;315637;31;3647;-81
2023/08/03 00:27:46;;;;;;;;;;;;;;;28.01;62.74;98906.16;314360;31;3720;-81
2023/08/03 00:27:56;;;;;;;;;;;;;;;28.00;62.73;98907.19;310330;31;1323;-81
2023/08/03 00:28:06;;;;;;;;;;;;;;;27.98;62.44;98898.47;311355;31;3977;-80
2023/08/03 00:28:20;;;;;;;;;;;;;;;27.95;62.46;98904.22;310846;31;3155;-80
2023/08/03 00:28:30;;;;;;;;;;;;;;;27.93;62.56;98908.97;311081;31;2667;-80
2023/08/03 00:28:41;;;;;;;;;;;;;;;27.91;62.83;98902.94;309867;31;1359;-81
2023/08/03 00:28:52;;;;;;;;;;;;;;;27.91;62.87;98900.25;310254;31;4033;-80
2023/08/03 00:29:02;;;;;;;;;;;;;;;27.89;62.77;98901.47;307582;31;4290;-80
2023/08/03 00:29:13;;;;;;;;;;;;;;;27.88;63.17;98899.81;305353;32;1913;-80
2023/08/03 00:29:23;;;;;;;;;;;;;;;27.87;62.84;98900.81;307153;32;4986;-81
2023/08/03 00:29:33;;;;;;;;;;;;;;;27.85;62.72;98898.31;306675;32;5334;-81
2023/08/03 00:29:43;;;;;;;;;;;;;;;27.82;63.42;98904.91;304453;32;1240;-81
2023/08/03 00:29:54;;;;;;;;;;;;;;;27.80;63.00;98904.28;304857;32;5288;-80
2023/08/03 00:30:04;;;;;;;;;;;;;;;27.79;63.51;98902.59;302398;32;5488;-81
2023/08/03 00:30:15;;;;;;;;;;;;;;;27.79;63.26;98901.78;301141;32;5114;-81
2023/08/03 00:30:25;;;;;;;;;;;;;;;27.79;63.12;98899.09;299339;33;837;-80
2023/08/03 00:30:35;;;;;;;;;;;;;;;27.79;63.51;98901.78;298092;32;4224;-80
2023/08/03 00:30:46;;;;;;;;;;;;;;;27.78;63.11;98902.81;296159;33;4469;-80
2023/08/03 00:30:56;;;;;;;;;;;;;;;27.78;63.40;98903.63;297321;33;1236;-80
2023/08/03 00:31:06;;;;;;;;;;;;;;;27.79;63.34;98896.41;292872;33;5471;-80
2023/08/03 00:31:16;;;;;;;;;;;;;;;27.78;63.28;98895.56;291162;33;6527;-80
2023/08/03 00:31:27;;;;;;;;;;;;;;;27.78;63.35;98900.09;291313;34;1246;-80
2023/08/03 00:31:37;;;;;;;;;;;;;;;27.76;63.21;98902.16;287069;34;7589;-80
2023/08/03 00:31:47;;;;;;;;;;;;;;;27.77;63.00;98903.81;285795;34;7698;-81
2023/08/03 00:32:00;;;;;;;;;;;;;;;27.77;63.52;98909.19;284779;34;1229;-80
2023/08/03 00:32:10;;;;;;;;;;;;;;;27.78;63.51;98900.09;282856;34;1294;-80
2023/08/03 00:32:20;;;;;;;;;;;;;;;27.77;63.39;98907.34;280878;34;8015;-80
2023/08/03 00:32:30;;;;;;;;;;;;;;;27.78;63.37;98900.09;279678;34;7201;-80
2023/08/03 00:32:41;;;;;;;;;;;;;;;27.80;63.55;98900.75;278436;35;1241;-80
2023/08/03 00:32:51;;;;;;;;;;;;;;;27.81;63.09;98902.41;277314;35;6407;-80
2023/08/03 00:35:11;;;;;;;;;;;;;;;27.90;62.57;98892.38;2504599;27;19951;-80
2023/08/03 00:35:21;;;;;;;;;;;;;;;27.91;62.88;98894.03;356022;27;909;-80
2023/08/03 00:35:31;;;;;;;;;;;;;;;27.89;62.68;98898.78;353435;28;1432;-80
2023/08/03 00:35:41;;;;;;;;;;;;;;;27.87;62.94;98898.97;350388;28;1321;-80
2023/08/03 00:35:51;;;;;;;;;;;;;;;27.86;62.72;98908.06;349528;28;1191;-79
2023/08/03 00:36:02;;;;;;;;;;;;;;;27.85;62.81;98898.31;349131;28;1211;-81
2023/08/03 00:36:12;;;;;;;;;;;;;;;27.84;62.91;98893.97;351854;28;1276;-80
2023/08/03 00:36:22;;;;;;;;;;;;;;;27.85;62.77;98905.56;352010;28;1360;-80
2023/08/03 00:36:33;;;;;;;;;;;;;;;27.85;62.83;98901.00;353326;28;1189;-80
2023/08/03 00:36:43;;;;;;;;;;;;;;;27.86;62.77;98907.22;351944;28;1211;-79
2023/08/03 00:36:53;;;;;;;;;;;;;;;27.88;62.79;98900.63;350442;28;1366;-80
2023/08/03 00:37:03;;;;;;;;;;;;;;;27.88;63.21;98899.81;350882;28;1329;-80
2023/08/03 00:37:14;;;;;;;;;;;;;;;27.88;63.28;98900.63;351614;28;1179;-79
2023/08/03 00:37:24;;;;;;;;;;;;;;;27.89;62.76;98901.47;350508;28;1257;-79
2023/08/03 00:37:37;;;;;;;;;;;;;;;27.90;62.69;98898.59;349080;28;1407;-79
2023/08/03 00:37:48;;;;;;;;;;;;;;;27.89;62.99;98907.69;350573;28;1484;-81
2023/08/03 00:37:59;;;;;;;;;;;;;;;27.87;63.39;98908.91;349096;28;824;-80
2023/08/03 00:38:09;;;;;;;;;;;;;;;27.85;63.08;98905.56;349095;28;1478;-79
2023/08/03 00:38:22;;;;;;;;;;;;;;;27.85;63.55;98905.56;350037;28;1190;-80
2023/08/03 00:38:32;;;;;;;;;;;;;;;27.85;63.29;98895.63;349453;28;1250;-80
2023/08/03 00:38:43;;;;;;;;;;;;;;;27.84;63.49;98904.72;350526;28;1210;-80
2023/08/03 00:38:53;;;;;;;;;;;;;;;27.84;63.42;98907.41;350533;28;1339;-80
2023/08/03 00:39:04;;;;;;;;;;;;;;;27.83;63.78;98898.53;348291;28;1215;-80
2023/08/03 00:39:14;;;;;;;;;;;;;;;27.83;63.38;98908.44;349158;28;1227;-80
2023/08/03 00:39:25;;;;;;;;;;;;;;;27.82;63.46;98904.09;349221;28;1294;-79
2023/08/03 00:39:35;;;;;;;;;;;;;;;27.83;63.49;98897.69;347703;28;1237;-80
2023/08/03 00:39:45;;;;;;;;;;;;;;;27.82;63.67;98902.22;346290;28;1180;-80
2023/08/03 00:39:55;;;;;;;;;;;;;;;27.82;63.35;98904.09;343742;28;825;-79
2023/08/03 00:40:06;;;;;;;;;;;;;;;27.82;63.75;98906.78;344420;28;1208;-80
2023/08/03 00:40:16;;;;;;;;;;;;;;;27.81;63.66;98905.94;344986;28;1596;-80
2023/08/03 00:40:26;;;;;;;;;;;;;;;27.81;63.48;98905.94;349188;28;1219;-80
2023/08/03 00:40:37;;;;;;;;;;;;;;;27.81;63.94;98902.41;348969;28;1283;-79
2023/08/03 00:40:47;;;;;;;;;;;;;;;27.81;63.44;98905.94;349102;28;1298;-79
2023/08/03 00:40:57;;;;;;;;;;;;;;;27.83;63.20;98903.06;347762;28;985;-80
2023/08/03 00:41:07;;;;;;;;;;;;;;;27.84;63.70;98907.41;347612;28;1256;-80
2023/08/03 00:41:18;;;;;;;;;;;;;;;27.85;63.66;98911.78;348152;28;1271;-80
2023/08/03 00:41:28;;;;;;;;;;;;;;;27.85;63.78;98906.41;347557;28;1193;-80
2023/08/03 00:41:38;;;;;;;;;;;;;;;27.85;63.30;98909.09;346428;28;1254;-80
2023/08/03 00:41:49;;;;;;;;;;;;;;;27.84;63.30;98899.34;345647;28;1218;-80
2023/08/03 00:41:59;;;;;;;;;;;;;;;27.85;63.24;98909.09;346527;28;753;-80
2023/08/03 00:42:09;;;;;;;;;;;;;;;27.84;63.23;98904.72;346268;28;1235;-80
2023/08/03 00:42:19;;;;;;;;;;;;;;;27.83;63.24;98906.59;345249;28;829;-80
2023/08/03 00:42:30;;;;;;;;;;;;;;;27.83;63.60;98905.75;345062;28;1186;-80
2023/08/03 00:42:40;;;;;;;;;;;;;;;27.83;63.26;98905.75;342402;28;1196;-80
2023/08/03 00:42:50;;;;;;;;;;;;;;;27.84;63.15;98904.72;343097;28;1215;-79
2023/08/03 00:43:04;;;;;;;;;;;;;;;27.82;63.18;98907.59;343579;28;1202;-80
2023/08/03 00:43:14;;;;;;;;;;;;;;;27.82;63.66;98904.09;343467;28;1438;-80
2023/08/03 00:43:24;;;;;;;;;;;;;;;27.83;63.62;98905.75;343253;28;1170;-80
2023/08/03 00:43:34;;;;;;;;;;;;;;;27.82;63.74;98913.00;340884;28;1830;-80
2023/08/03 00:43:45;;;;;;;;;;;;;;;27.84;63.08;98904.72;339606;29;1698;-80
2023/08/03 00:43:55;;;;;;;;;;;;;;;27.84;63.14;98904.72;337811;29;1296;-80
2023/08/03 00:44:05;;;;;;;;;;;;;;;27.85;63.40;98905.56;335195;29;1320;-80
2023/08/03 00:44:15;;;;;;;;;;;;;;;27.85;63.14;98910.94;337174;29;872;-80
2023/08/03 00:44:26;;;;;;;;;;;;;;;27.85;63.40;98909.09;337111;29;1202;-80
2023/08/03 00:44:37;;;;;;;;;;;;;;;27.85;63.16;98906.41;337081;29;1194;-80
2023/08/03 00:44:47;;;;;;;;;;;;;;;27.84;63.38;98915.50;338336;29;1438;-80
2023/08/03 00:44:57;;;;;;;;;;;;;;;27.84;63.26;98907.41;338409;29;1298;-80
2023/08/03 00:45:08;;;;;;;;;;;;;;;27.82;63.40;98913.00;338297;29;1541;-79
2023/08/03 00:45:19;;;;;;;;;;;;;;;27.82;63.33;98904.91;335872;29;1341;-80
2023/08/03 00:45:29;;;;;;;;;;;;;;;27.83;63.42;98908.44;334348;29;1311;-80
2023/08/03 00:45:39;;;;;;;;;;;;;;;27.84;63.74;98899.34;336715;29;1844;-80
2023/08/03 00:45:49;;;;;;;;;;;;;;;27.84;63.36;98904.72;336164;29;2133;-80
2023/08/03 00:46:00;;;;;;;;;;;;;;;27.84;63.76;98904.72;333042;29;2136;-80
2023/08/03 00:46:10;;;;;;;;;;;;;;;27.83;63.48;98909.28;329425;30;1215;-80
2023/08/03 00:46:20;;;;;;;;;;;;;;;27.84;63.34;98910.09;331516;29;1709;-80
2023/08/03 00:46:30;;;;;;;;;;;;;;;27.85;63.50;98909.09;330722;29;1312;-80
2023/08/03 00:46:41;;;;;;;;;;;;;;;27.85;63.92;98901.00;329664;30;1013;-80
2023/08/03 00:46:51;;;;;;;;;;;;;;;27.85;63.69;98906.41;329386;30;1264;-80
2023/08/03 00:47:01;;;;;;;;;;;;;;;27.86;63.37;98909.91;328084;30;1857;-80
2023/08/03 00:47:11;;;;;;;;;;;;;;;27.86;63.42;98901.84;326961;30;1270;-80
2023/08/03 00:47:22;;;;;;;;;;;;;;;27.86;63.74;98902.69;324757;30;1854;-80
2023/08/03 00:47:32;;;;;;;;;;;;;;;27.86;63.28;98913.44;320874;30;1947;-80
2023/08/03 00:47:42;;;;;;;;;;;;;;;27.85;63.49;98901.00;322370;30;1225;-80
2023/08/03 00:47:52;;;;;;;;;;;;;;;27.85;63.86;98906.41;323691;30;2344;-80
2023/08/03 00:48:03;;;;;;;;;;;;;;;27.85;63.95;98906.41;324576;30;2552;-80
2023/08/03 00:48:13;;;;;;;;;;;;;;;27.85;63.88;98906.41;325875;30;796;-80
2023/08/03 00:48:23;;;;;;;;;;;;;;;27.83;63.91;98898.53;324429;30;2615;-80
2023/08/03 00:48:34;;;;;;;;;;;;;;;27.82;63.49;98907.59;320746;30;2291;-80
2023/08/03 00:48:44;;;;;;;;;;;;;;;27.83;63.94;98908.44;321154;30;1206;-80
2023/08/03 00:48:54;;;;;;;;;;;;;;;27.80;63.75;98906.97;322388;30;1390;-80
2023/08/03 00:49:04;;;;;;;;;;;;;;;27.78;63.69;98903.63;321694;30;1901;-80
2023/08/03 00:49:15;;;;;;;;;;;;;;;27.78;63.82;98905.50;319214;30;2367;-80
2023/08/03 00:49:28;;;;;;;;;;;;;;;27.78;63.61;98905.50;321213;30;1210;-80
2023/08/03 00:49:39;;;;;;;;;;;;;;;27.78;64.03;98905.50;320563;30;2463;-80
2023/08/03 00:49:49;;;;;;;;;;;;;;;27.75;64.17;98905.88;318603;30;2810;-80
2023/08/03 00:49:59;;;;;;;;;;;;;;;27.75;64.26;98903.19;318829;30;1225;-80
2023/08/03 00:50:09;;;;;;;;;;;;;;;27.74;64.17;98909.56;316897;30;3021;-80
2023/08/03 00:50:20;;;;;;;;;;;;;;;27.74;63.90;98904.19;311470;31;3671;-80
2023/08/03 00:50:30;;;;;;;;;;;;;;;27.73;64.01;98907.91;310532;31;3109;-80
2023/08/03 00:50:40;;;;;;;;;;;;;;;27.73;64.34;98907.91;314156;31;1315;-80
2023/08/03 00:50:50;;;;;;;;;;;;;;;27.71;63.92;98902.75;310865;31;2422;-81
2023/08/03 00:51:00;;;;;;;;;;;;;;;27.71;64.00;98904.59;310552;31;2012;-80
2023/08/03 00:51:11;;;;;;;;;;;;;;;27.71;64.13;98904.59;311901;31;1323;-80
2023/08/03 00:51:22;;;;;;;;;;;;;;;27.70;64.23;98903.78;310726;31;2622;-80
2023/08/03 00:51:32;;;;;;;;;;;;;;;27.71;63.97;98904.59;311115;31;3199;-80
2023/08/03 00:51:42;;;;;;;;;;;;;;;27.71;64.06;98904.59;310908;31;1327;-80
2023/08/03 00:51:59;;;;;;;;;;;;;;;27.71;64.46;98904.59;310781;31;3094;-80
2023/08/03 00:52:09;;;;;;;;;;;;;;;27.69;64.17;98906.66;311042;31;3816;-80
2023/08/03 00:52:20;;;;;;;;;;;;;;;27.68;64.31;98905.81;309241;31;3777;-80
2023/08/03 00:52:31;;;;;;;;;;;;;;;27.70;63.98;98908.31;308241;31;4017;-80
2023/08/03 00:52:42;;;;;;;;;;;;;;;27.70;64.11;98906.47;309817;31;1379;-80
2023/08/03 00:52:52;;;;;;;;;;;;;;;27.71;64.43;98907.28;307366;31;4291;-80
2023/08/03 00:53:02;;;;;;;;;;;;;;;27.71;64.61;98900.06;305547;32;3111;-80
2023/08/03 00:53:13;;;;;;;;;;;;;;;27.71;64.30;98901.91;306542;32;1210;-80
2023/08/03 00:53:23;;;;;;;;;;;;;;;27.72;64.17;98900.91;302838;32;2715;-80
2023/08/03 00:53:33;;;;;;;;;;;;;;;27.70;64.64;98901.09;302313;32;3462;-80
2023/08/03 00:53:45;;;;;;;;;;;;;;;27.69;64.48;98898.59;303298;32;1466;-80
2023/08/03 00:53:56;;;;;;;;;;;;;;;27.67;64.56;98901.47;301330;32;939;-80
2023/08/03 00:54:07;;;;;;;;;;;;;;;27.67;64.61;98903.31;298608;32;4771;-80
2023/08/03 00:54:17;;;;;;;;;;;;;;;27.67;64.68;98904.16;296294;33;5150;-80
2023/08/03 00:54:27;;;;;;;;;;;;;;;27.67;64.39;98900.63;294207;33;1254;-80
2023/08/03 00:54:37;;;;;;;;;;;;;;;27.67;64.48;98906.00;293581;33;5168;-80
2023/08/03 00:54:48;;;;;;;;;;;;;;;27.67;64.61;98903.31;293992;33;5730;-80
2023/08/03 00:54:58;;;;;;;;;;;;;;;27.68;64.22;98899.59;294241;33;1236;-80
2023/08/03 00:55:08;;;;;;;;;;;;;;;27.67;64.19;98900.63;297085;33;6049;-80
2023/08/03 00:55:18;;;;;;;;;;;;;;;27.66;64.89;98901.66;294905;33;4337;-80
2023/08/03 00:55:29;;;;;;;;;;;;;;;27.65;64.51;98900.81;294212;33;1229;-80
2023/08/03 00:55:39;;;;;;;;;;;;;;;27.66;64.58;98902.47;290861;33;5352;-80
2023/08/03 00:55:49;;;;;;;;;;;;;;;27.67;64.58;98900.63;289802;33;5798;-80
2023/08/03 00:55:59;;;;;;;;;;;;;;;27.66;64.60;98896.28;291376;34;1010;-80
2023/08/03 00:56:10;;;;;;;;;;;;;;;27.66;64.79;98901.66;290709;33;6040;-80
2023/08/03 00:56:20;;;;;;;;;;;;;;;27.65;65.29;98900.81;289563;33;6390;-80
2023/08/03 00:56:30;;;;;;;;;;;;;;;27.66;64.87;98904.34;288001;33;7689;-80
2023/08/03 00:56:41;;;;;;;;;;;;;;;27.65;65.21;98900.81;288507;34;1312;-80
2023/08/03 00:56:51;;;;;;;;;;;;;;;27.66;65.12;98902.47;285705;34;8063;-80
2023/08/03 00:57:02;;;;;;;;;;;;;;;27.66;64.92;98901.66;282423;34;9217;-80
2023/08/03 00:57:12;;;;;;;;;;;;;;;27.68;64.99;98904.97;280131;35;1398;-80
2023/08/03 00:59:21;;;;;;;;;;;;;;;27.64;65.15;98898.31;2504510;27;19937;-80
2023/08/03 00:59:32;;;;;;;;;;;;;;;27.63;65.38;98896.66;354798;27;1118;-79
2023/08/03 00:59:44;;;;;;;;;;;;;;;27.65;65.05;98899.97;353352;28;847;-79
2023/08/03 00:59:54;;;;;;;;;;;;;;;27.66;65.55;98907.88;351898;28;1297;-80
2023/08/03 01:00:05;;;;;;;;;;;;;;;27.66;65.12;98899.78;349171;28;1287;-79
2023/08/03 01:00:15;;;;;;;;;;;;;;;27.67;65.55;98903.31;350325;28;1223;-79
2023/08/03 01:00:25;;;;;;;;;;;;;;;27.68;65.32;98892.38;350277;28;1344;-80
2023/08/03 01:00:36;;;;;;;;;;;;;;;27.69;65.26;98899.41;347741;28;1236;-79
2023/08/03 01:00:47;;;;;;;;;;;;;;;27.70;65.22;98897.56;349149;28;1247;-80
2023/08/03 01:00:57;;;;;;;;;;;;;;;27.71;64.76;98891.16;349071;28;1211;-79
2023/08/03 01:01:07;;;;;;;;;;;;;;;27.71;65.38;98894.69;347722;28;1318;-79
2023/08/03 01:01:17;;;;;;;;;;;;;;;27.72;65.18;98900.91;348648;28;1319;-78
2023/08/03 01:01:27;;;;;;;;;;;;;;;27.72;65.43;98895.53;350335;28;1324;-78
2023/08/03 01:01:38;;;;;;;;;;;;;;;27.71;65.38;98897.38;350547;28;1328;-80
2023/08/03 01:01:48;;;;;;;;;;;;;;;27.72;65.53;98898.22;350344;28;1322;-79